Time;durP1;ratioP1;P1;durP2;ratioP2;P2;SDS_P1;SDS_P2;PMS_P1;PMS_P2;Temp;Humidity;BMP_temperature;BMP_pressure;BME280_temperature;BME280_humidity;BME280_pressure;Samples;Min_cycle;Max_cycle;Signal;HPM_P1;HPM_P2
2024/02/27 00:00:06;;;;;;;;;;;;;;;;;;5094320;28;19908;-70
2024/02/27 00:02:32;;;;;;;;;;;;;;;;;;5093547;28;19981;-70
2024/02/27 00:04:58;;;;;;;;;;;;;;;;;;5094078;28;20407;-70
2024/02/27 00:07:25;;;;;;;;;;;;;;;;;;5093610;28;20307;-69
2024/02/27 00:09:51;;;;;;;;;;;;;;;;;;5093465;28;20257;-70
2024/02/27 00:12:17;;;;;;;;;;;;;;;;;;5075797;28;19908;-70
2024/02/27 00:14:43;;;;;;;;;;;;;;;;;;5093797;28;19954;-69
2024/02/27 00:17:09;;;;;;;;;;;;;;;;;;5075206;28;19915;-69
2024/02/27 00:19:35;;;;;;;;;;;;;;;;;;5093689;28;19908;-69
2024/02/27 00:22:01;;;;;;;;;;;;;;;;;;5093285;28;20002;-69
2024/02/27 00:24:27;;;;;;;;;;;;;;;;;;5093788;28;20423;-69
2024/02/27 00:26:53;;;;;;;;;;;;;;;;;;5093651;28;20329;-70
2024/02/27 00:29:20;;;;;;;;;;;;;;;;;;5093850;28;19920;-69
2024/02/27 00:31:46;;;;;;;;;;;;;;;;;;5098063;28;19914;-69
2024/02/27 00:34:12;;;;;;;;;;;;;;;;;;5079633;28;19931;-70
2024/02/27 00:36:38;;;;;;;;;;;;;;;;;;5097293;28;19908;-70
2024/02/27 00:39:04;;;;;;;;;;;;;;;;;;5097666;28;19908;-70
2024/02/27 00:41:30;;;;;;;;;;;;;;;;;;5097677;28;19957;-70
2024/02/27 00:43:56;;;;;;;;;;;;;;;;;;5097092;28;19914;-70
2024/02/27 00:46:22;;;;;;;;;;;;;;;;;;5097718;28;19914;-70
2024/02/27 00:48:48;;;;;;;;;;;;;;;;;;5097344;28;20016;-70
2024/02/27 00:51:14;;;;;;;;;;;;;;;;;;5078860;28;19909;-69
2024/02/27 00:53:40;;;;;;;;;;;;;;;;;;5079149;28;19909;-69
2024/02/27 00:56:06;;;;;;;;;;;;;;;;;;5097304;28;19937;-69
2024/02/27 00:58:32;;;;;;;;;;;;;;;;;;5096836;28;20374;-70
2024/02/27 01:00:57;;;;;;;;;;;;;;;;;;5097486;28;19908;-69
2024/02/27 01:03:23;;;;;;;;;;;;;;;;;;5097277;28;19912;-70
2024/02/27 01:05:49;;;;;;;;;;;;;;;;;;5096707;28;19915;-69
2024/02/27 01:08:15;;;;;;;;;;;;;;;;;;5096987;28;19920;-69
2024/02/27 01:10:41;;;;;;;;;;;;;;;;;;5078789;28;20419;-69
2024/02/27 01:13:07;;;;;;;;;;;;;;;;;;5096567;28;20284;-69
2024/02/27 01:15:33;;;;;;;;;;;;;;;;;;5097484;28;19908;-69
2024/02/27 01:17:59;;;;;;;;;;;;;;;;;;5078685;28;19916;-69
2024/02/27 01:20:25;;;;;;;;;;;;;;;;;;5096400;28;19919;-69
2024/02/27 01:22:51;;;;;;;;;;;;;;;;;;5096812;28;20046;-69
2024/02/27 01:25:17;;;;;;;;;;;;;;;;;;5078368;28;19970;-69
2024/02/27 01:27:44;;;;;;;;;;;;;;;;;;5096854;28;19916;-69
2024/02/27 01:30:10;;;;;;;;;;;;;;;;;;5096587;28;19908;-69
2024/02/27 01:32:36;;;;;;;;;;;;;;;;;;5078150;28;20281;-69
2024/02/27 01:35:02;;;;;;;;;;;;;;;;;;5096546;28;19950;-70
2024/02/27 01:37:28;;;;;;;;;;;;;;;;;;5096512;28;19908;-70
2024/02/27 01:39:54;;;;;;;;;;;;;;;;;;5095655;28;20340;-69
2024/02/27 01:42:20;;;;;;;;;;;;;;;;;;5096494;28;19908;-69
2024/02/27 01:44:46;;;;;;;;;;;;;;;;;;5096381;28;19908;-69
2024/02/27 01:47:12;;;;;;;;;;;;;;;;;;5077780;28;19957;-69
2024/02/27 01:49:38;;;;;;;;;;;;;;;;;;5096441;28;20019;-69
2024/02/27 01:52:04;;;;;;;;;;;;;;;;;;5096275;28;20367;-69
2024/02/27 01:54:30;;;;;;;;;;;;;;;;;;5095761;28;19908;-70
2024/02/27 01:56:56;;;;;;;;;;;;;;;;;;5096142;28;19908;-69
2024/02/27 01:59:22;;;;;;;;;;;;;;;;;;5077902;28;20421;-69
2024/02/27 02:01:48;;;;;;;;;;;;;;;;;;5095925;28;20198;-69
2024/02/27 02:04:14;;;;;;;;;;;;;;;;;;5095982;28;19923;-69
2024/02/27 02:06:40;;;;;;;;;;;;;;;;;;5095978;28;20314;-70
2024/02/27 02:09:06;;;;;;;;;;;;;;;;;;5095348;28;19943;-69
2024/02/27 02:11:32;;;;;;;;;;;;;;;;;;5095838;28;19962;-69
2024/02/27 02:13:57;;;;;;;;;;;;;;;;;;5095877;28;19908;-69
2024/02/27 02:16:23;;;;;;;;;;;;;;;;;;5095415;28;19915;-69
2024/02/27 02:18:49;;;;;;;;;;;;;;;;;;5095732;28;19908;-69
2024/02/27 02:21:16;;;;;;;;;;;;;;;;;;5095705;28;19952;-69
2024/02/27 02:23:42;;;;;;;;;;;;;;;;;;5077430;28;20424;-69
2024/02/27 02:26:08;;;;;;;;;;;;;;;;;;5095628;28;19908;-69
2024/02/27 02:28:34;;;;;;;;;;;;;;;;;;5095478;28;19916;-69
2024/02/27 02:31:00;;;;;;;;;;;;;;;;;;5095912;28;20348;-70
2024/02/27 02:33:27;;;;;;;;;;;;;;;;;;5095740;28;19909;-69
2024/02/27 02:35:53;;;;;;;;;;;;;;;;;;5094977;28;19914;-69
2024/02/27 02:38:19;;;;;;;;;;;;;;;;;;5095613;28;20283;-69
2024/02/27 02:40:45;;;;;;;;;;;;;;;;;;5095252;28;19922;-69
2024/02/27 02:43:11;;;;;;;;;;;;;;;;;;5094840;28;19943;-69
2024/02/27 02:45:37;;;;;;;;;;;;;;;;;;5095178;28;19953;-69
2024/02/27 02:48:03;;;;;;;;;;;;;;;;;;5095048;28;19938;-69
2024/02/27 02:50:30;;;;;;;;;;;;;;;;;;5094741;28;20003;-69
2024/02/27 02:52:55;;;;;;;;;;;;;;;;;;5094214;28;19909;-69
2024/02/27 02:55:21;;;;;;;;;;;;;;;;;;5076709;28;20277;-69
2024/02/27 02:57:47;;;;;;;;;;;;;;;;;;5094591;28;19908;-69
2024/02/27 03:00:13;;;;;;;;;;;;;;;;;;5094877;28;19947;-69
2024/02/27 03:02:39;;;;;;;;;;;;;;;;;;5094875;28;19908;-69
2024/02/27 03:05:05;;;;;;;;;;;;;;;;;;5094416;28;19908;-69
2024/02/27 03:07:31;;;;;;;;;;;;;;;;;;5094761;28;19912;-69
2024/02/27 03:09:57;;;;;;;;;;;;;;;;;;5095019;28;19922;-69
2024/02/27 03:12:23;;;;;;;;;;;;;;;;;;5094293;28;19915;-70
2024/02/27 03:14:49;;;;;;;;;;;;;;;;;;5094661;28;19908;-70
2024/02/27 03:17:15;;;;;;;;;;;;;;;;;;5094649;28;20004;-69
2024/02/27 03:19:41;;;;;;;;;;;;;;;;;;5094129;28;19915;-69
2024/02/27 03:22:08;;;;;;;;;;;;;;;;;;5076344;28;19908;-69
2024/02/27 03:24:34;;;;;;;;;;;;;;;;;;5095075;28;20337;-69
2024/02/27 03:27:00;;;;;;;;;;;;;;;;;;5094078;28;19916;-70
2024/02/27 03:29:26;;;;;;;;;;;;;;;;;;5094313;28;19956;-70
2024/02/27 03:31:52;;;;;;;;;;;;;;;;;;5094332;28;19908;-70
2024/02/27 03:34:17;;;;;;;;;;;;;;;;;;5094511;28;19908;-70
2024/02/27 03:36:43;;;;;;;;;;;;;;;;;;5094597;28;19908;-70
2024/02/27 03:39:09;;;;;;;;;;;;;;;;;;5075641;28;19908;-70
2024/02/27 03:41:35;;;;;;;;;;;;;;;;;;5094282;28;19974;-70
2024/02/27 03:44:03;;;;;;;;;;;;;;;;;;5094434;28;19908;-70
2024/02/27 03:46:29;;;;;;;;;;;;;;;;;;5075653;28;19950;-70
2024/02/27 03:48:55;;;;;;;;;;;;;;;;;;5094182;28;19916;-70
2024/02/27 03:51:21;;;;;;;;;;;;;;;;;;5094071;28;19915;-70
2024/02/27 03:53:47;;;;;;;;;;;;;;;;;;5093630;28;19908;-70
2024/02/27 03:56:13;;;;;;;;;;;;;;;;;;5094056;28;19919;-70
2024/02/27 03:58:38;;;;;;;;;;;;;;;;;;5093930;28;19909;-70
2024/02/27 04:01:04;;;;;;;;;;;;;;;;;;5093748;28;19948;-70
2024/02/27 04:03:30;;;;;;;;;;;;;;;;;;5093768;28;19915;-70
2024/02/27 04:05:56;;;;;;;;;;;;;;;;;;5093917;28;19909;-70
2024/02/27 04:08:22;;;;;;;;;;;;;;;;;;5093315;28;19928;-70
2024/02/27 04:10:48;;;;;;;;;;;;;;;;;;5094049;28;19991;-70
2024/02/27 04:13:14;;;;;;;;;;;;;;;;;;5093805;28;20368;-70
2024/02/27 04:15:40;;;;;;;;;;;;;;;;;;5075246;28;19915;-70
2024/02/27 04:18:06;;;;;;;;;;;;;;;;;;5093812;28;20325;-70
2024/02/27 04:20:32;;;;;;;;;;;;;;;;;;5093736;28;20003;-70
2024/02/27 04:22:58;;;;;;;;;;;;;;;;;;5093317;28;19908;-70
2024/02/27 04:25:24;;;;;;;;;;;;;;;;;;5093978;28;19914;-70
2024/02/27 04:27:50;;;;;;;;;;;;;;;;;;5075542;28;19912;-70
2024/02/27 04:30:16;;;;;;;;;;;;;;;;;;5093313;28;19916;-70
2024/02/27 04:32:43;;;;;;;;;;;;;;;;;;5093597;28;20316;-70
2024/02/27 04:35:09;;;;;;;;;;;;;;;;;;5093628;28;19908;-70
2024/02/27 04:37:35;;;;;;;;;;;;;;;;;;5093546;28;19946;-70
2024/02/27 04:40:01;;;;;;;;;;;;;;;;;;5093831;28;19950;-70
2024/02/27 04:42:27;;;;;;;;;;;;;;;;;;5093184;28;20348;-70
2024/02/27 04:44:53;;;;;;;;;;;;;;;;;;5093584;28;19908;-70
2024/02/27 04:47:19;;;;;;;;;;;;;;;;;;5093502;28;19958;-70
2024/02/27 04:49:45;;;;;;;;;;;;;;;;;;5092934;28;20007;-70
2024/02/27 04:52:11;;;;;;;;;;;;;;;;;;5093545;28;19970;-70
2024/02/27 04:54:37;;;;;;;;;;;;;;;;;;5093715;28;19908;-70
2024/02/27 04:57:03;;;;;;;;;;;;;;;;;;5093028;28;19913;-70
2024/02/27 04:59:29;;;;;;;;;;;;;;;;;;5093541;28;19971;-70
2024/02/27 05:01:55;;;;;;;;;;;;;;;;;;5093327;28;19908;-70
2024/02/27 05:04:21;;;;;;;;;;;;;;;;;;5092894;28;20314;-70
2024/02/27 05:06:47;;;;;;;;;;;;;;;;;;5093325;28;19908;-69
2024/02/27 05:09:13;;;;;;;;;;;;;;;;;;5093081;28;20391;-71
2024/02/27 05:11:39;;;;;;;;;;;;;;;;;;5092885;28;20284;-71
2024/02/27 05:14:05;;;;;;;;;;;;;;;;;;5093299;28;19915;-70
2024/02/27 05:16:31;;;;;;;;;;;;;;;;;;5095520;28;20391;-70
2024/02/27 05:18:57;;;;;;;;;;;;;;;;;;5096389;28;20053;-70
2024/02/27 05:21:23;;;;;;;;;;;;;;;;;;5096344;28;19943;-70
2024/02/27 05:23:49;;;;;;;;;;;;;;;;;;5096028;28;19908;-70
2024/02/27 05:26:15;;;;;;;;;;;;;;;;;;5096230;28;19915;-71
2024/02/27 05:28:41;;;;;;;;;;;;;;;;;;5096657;28;20014;-71
2024/02/27 05:31:07;;;;;;;;;;;;;;;;;;5095330;28;19962;-71
2024/02/27 05:33:33;;;;;;;;;;;;;;;;;;5096137;28;19916;-71
2024/02/27 05:35:58;;;;;;;;;;;;;;;;;;5096605;28;19950;-71
2024/02/27 05:38:27;;;;;;;;;;;;;;;;;;5096567;28;19908;-71
2024/02/27 05:40:53;;;;;;;;;;;;;;;;;;5096067;28;19951;-71
2024/02/27 05:43:19;;;;;;;;;;;;;;;;;;5096348;28;19919;-71
2024/02/27 05:45:46;;;;;;;;;;;;;;;;;;5094013;28;20322;-70
2024/02/27 05:48:12;;;;;;;;;;;;;;;;;;5095458;28;19976;-68
2024/02/27 05:50:38;;;;;;;;;;;;;;;;;;5096467;28;19995;-69
2024/02/27 05:53:04;;;;;;;;;;;;;;;;;;5094385;28;20006;-68
2024/02/27 05:55:30;;;;;;;;;;;;;;;;;;5096175;28;20379;-69
2024/02/27 05:57:56;;;;;;;;;;;;;;;;;;5096185;28;19943;-69
2024/02/27 06:00:22;;;;;;;;;;;;;;;;;;5095674;28;20382;-69
2024/02/27 06:02:48;;;;;;;;;;;;;;;;;;5095763;28;20448;-69
2024/02/27 06:05:13;;;;;;;;;;;;;;;;;;5093907;28;19908;-69
2024/02/27 06:07:39;;;;;;;;;;;;;;;;;;5094546;28;19912;-69
2024/02/27 06:10:05;;;;;;;;;;;;;;;;;;5095824;28;20375;-69
2024/02/27 06:12:31;;;;;;;;;;;;;;;;;;5077787;28;19915;-69
2024/02/27 06:14:57;;;;;;;;;;;;;;;;;;5095578;28;19908;-69
2024/02/27 06:17:23;;;;;;;;;;;;;;;;;;5095630;28;20360;-69
2024/02/27 06:19:55;;;;;;;;;;;;;;;;;;5094974;28;20378;-65
2024/02/27 06:22:23;;;;;;;;;;;;;;;;;;5090210;28;19920;-72
2024/02/27 06:24:49;;;;;;;;;;;;;;;;;;5094392;28;20378;-69
2024/02/27 06:27:15;;;;;;;;;;;;;;;;;;5086563;28;19921;-69
2024/02/27 06:29:41;;;;;;;;;;;;;;;;;;5069691;28;19920;-66
2024/02/27 06:32:10;;;;;;;;;;;;;;;;;;5094024;28;19919;-68
2024/02/27 06:34:36;;;;;;;;;;;;;;;;;;5083474;28;20268;-67
2024/02/27 06:37:02;;;;;;;;;;;;;;;;;;5075776;28;19923;-68
2024/02/27 06:39:28;;;;;;;;;;;;;;;;;;5089290;28;19920;-66
2024/02/27 06:41:54;;;;;;;;;;;;;;;;;;5079988;28;20384;-67
2024/02/27 06:44:21;;;;;;;;;;;;;;;;;;5081090;28;19992;-67
2024/02/27 06:46:47;;;;;;;;;;;;;;;;;;5091462;28;20316;-68
2024/02/27 06:49:13;;;;;;;;;;;;;;;;;;5090444;28;19942;-69
2024/02/27 06:51:41;;;;;;;;;;;;;;;;;;5066248;28;19922;-68
2024/02/27 06:54:07;;;;;;;;;;;;;;;;;;5073942;28;20375;-66
2024/02/27 06:56:33;;;;;;;;;;;;;;;;;;5092627;28;20005;-66
2024/02/27 06:58:59;;;;;;;;;;;;;;;;;;5074002;28;19912;-68
2024/02/27 07:01:25;;;;;;;;;;;;;;;;;;5092299;28;20360;-68
2024/02/27 07:03:51;;;;;;;;;;;;;;;;;;5092417;28;20341;-70
2024/02/27 07:06:17;;;;;;;;;;;;;;;;;;5094004;28;20421;-68
2024/02/27 07:08:43;;;;;;;;;;;;;;;;;;5093268;28;19927;-67
2024/02/27 07:11:09;;;;;;;;;;;;;;;;;;5092916;28;19920;-68
2024/02/27 07:13:35;;;;;;;;;;;;;;;;;;5092434;28;19926;-68
2024/02/27 07:16:03;;;;;;;;;;;;;;;;;;5072550;28;19914;-68
2024/02/27 07:18:30;;;;;;;;;;;;;;;;;;5088106;28;19930;-68
2024/02/27 07:20:59;;;;;;;;;;;;;;;;;;5087560;28;20276;-67
2024/02/27 07:23:25;;;;;;;;;;;;;;;;;;5093297;28;19958;-67
2024/02/27 07:25:51;;;;;;;;;;;;;;;;;;5091586;28;19944;-67
2024/02/27 07:28:17;;;;;;;;;;;;;;;;;;5092639;28;19927;-69
2024/02/27 07:30:48;;;;;;;;;;;;;;;;;;5091505;28;20412;-67
2024/02/27 07:33:14;;;;;;;;;;;;;;;;;;5090967;28;19912;-69
2024/02/27 07:35:39;;;;;;;;;;;;;;;;;;5076623;28;20343;-68
2024/02/27 07:38:05;;;;;;;;;;;;;;;;;;5071520;28;20348;-67
2024/02/27 07:40:33;;;;;;;;;;;;;;;;;;5094778;28;20388;-67
2024/02/27 07:42:59;;;;;;;;;;;;;;;;;;5091251;28;19912;-68
2024/02/27 07:45:25;;;;;;;;;;;;;;;;;;5073556;28;20710;-68
2024/02/27 07:47:51;;;;;;;;;;;;;;;;;;5052935;28;20284;-67
2024/02/27 07:50:17;;;;;;;;;;;;;;;;;;5071286;28;19913;-68
2024/02/27 07:52:43;;;;;;;;;;;;;;;;;;5079076;28;19919;-68
2024/02/27 07:55:09;;;;;;;;;;;;;;;;;;5091175;28;20003;-70
2024/02/27 07:57:35;;;;;;;;;;;;;;;;;;5088647;28;19959;-69
2024/02/27 08:00:01;;;;;;;;;;;;;;;;;;5089981;28;20272;-69
2024/02/27 08:02:27;;;;;;;;;;;;;;;;;;5070368;28;19935;-69
2024/02/27 08:04:53;;;;;;;;;;;;;;;;;;5087004;28;19947;-70
2024/02/27 08:07:19;;;;;;;;;;;;;;;;;;5089245;28;19916;-69
2024/02/27 08:09:45;;;;;;;;;;;;;;;;;;5089121;28;19998;-68
2024/02/27 08:12:11;;;;;;;;;;;;;;;;;;5090813;28;19912;-66
2024/02/27 08:14:37;;;;;;;;;;;;;;;;;;5088319;28;20002;-67
2024/02/27 08:17:05;;;;;;;;;;;;;;;;;;5088451;28;20000;-67
2024/02/27 08:19:31;;;;;;;;;;;;;;;;;;5090248;28;20006;-67
2024/02/27 08:22:03;;;;;;;;;;;;;;;;;;5086833;28;20011;-68
2024/02/27 08:24:29;;;;;;;;;;;;;;;;;;5086779;28;19912;-67
2024/02/27 08:26:55;;;;;;;;;;;;;;;;;;5089587;28;19938;-67
2024/02/27 08:29:21;;;;;;;;;;;;;;;;;;5075613;28;19978;-66
2024/02/27 08:31:47;;;;;;;;;;;;;;;;;;5070641;28;19908;-67
2024/02/27 08:34:13;;;;;;;;;;;;;;;;;;5071265;28;20036;-67
2024/02/27 08:36:39;;;;;;;;;;;;;;;;;;5071152;28;20335;-68
2024/02/27 08:39:05;;;;;;;;;;;;;;;;;;5071862;28;19916;-69
2024/02/27 08:41:33;;;;;;;;;;;;;;;;;;5088718;28;19912;-68
2024/02/27 08:44:00;;;;;;;;;;;;;;;;;;5090632;28;19953;-68
2024/02/27 08:49:13;;;;;;;;;;;;;;;;;;5087652;27;19916;-68
2024/02/27 08:51:39;;;;;;;;;;;;;;;;;;5088280;28;19919;-68
2024/02/27 08:56:28;;;;;;;;;;;;;;;;;;5087528;27;19922;-68
2024/02/27 08:58:54;;;;;;;;;;;;;;;;;;5087139;28;20360;-69
2024/02/27 09:01:20;;;;;;;;;;;;;;;;;;5070183;28;19912;-69
2024/02/27 09:03:48;;;;;;;;;;;;;;;;;;5076348;28;20269;-68
2024/02/27 09:06:23;;;;;;;;;;;;;;;;;;5079354;28;19913;-67
2024/02/27 09:08:49;;;;;;;;;;;;;;;;;;5079444;28;19934;-69
2024/02/27 09:11:15;;;;;;;;;;;;;;;;;;5078075;28;19912;-69
2024/02/27 09:13:41;;;;;;;;;;;;;;;;;;5076822;28;19913;-68
2024/02/27 09:16:07;;;;;;;;;;;;;;;;;;5088262;28;19924;-68
2024/02/27 09:18:34;;;;;;;;;;;;;;;;;;5087947;28;19909;-67
2024/02/27 09:22:51;;;;;;;;;;;;;;;;;;5088081;27;19917;-68
2024/02/27 09:27:46;;;;;;;;;;;;;;;;;;5164180;27;19915;-70
2024/02/27 09:31:18;;;;;;;;;;;;;;;;;;5084989;27;19913;-68
2024/02/27 09:33:44;;;;;;;;;;;;;;;;;;5085011;28;19973;-68
2024/02/27 09:36:10;;;;;;;;;;;;;;;;;;5087873;28;19938;-68
2024/02/27 09:38:36;;;;;;;;;;;;;;;;;;5072085;28;19908;-68
2024/02/27 09:41:02;;;;;;;;;;;;;;;;;;5068394;28;20435;-68
2024/02/27 09:43:29;;;;;;;;;;;;;;;;;;5069654;28;19909;-68
2024/02/27 09:45:56;;;;;;;;;;;;;;;;;;5086637;28;19912;-68
2024/02/27 09:49:29;;;;;;;;;;;;;;;;;;5067005;28;20555;-70
2024/02/27 09:51:55;;;;;;;;;;;;;;;;;;5067295;28;19947;-68
2024/02/27 09:56:03;;;;;;;;;;;;;;;;;;4951463;27;6165353;-68
2024/02/27 09:58:29;;;;;;;;;;;;;;;;;;5172712;27;19918;-68
2024/02/27 10:02:27;;;;;;;;;;;;;;;;;;5083549;28;19916;-68
2024/02/27 10:04:53;;;;;;;;;;;;;;;;;;5088616;28;19963;-67
2024/02/27 10:07:20;;;;;;;;;;;;;;;;;;5089604;28;20351;-67
2024/02/27 10:10:53;;;;;;;;;;;;;;;;;;5130051;27;20558;-68
2024/02/27 10:13:19;;;;;;;;;;;;;;;;;;5129634;28;20035;-69
2024/02/27 10:18:43;;;;;;;;;;;;;;;;;;5110352;27;20368;-68
2024/02/27 10:25:14;;;;;;;;;;;;;;;;;;5090463;27;20359;-70
2024/02/27 10:27:40;;;;;;;;;;;;;;;;;;5086424;28;19966;-68
2024/02/27 10:32:20;;;;;;;;;;;;;;;;;;5086080;27;19917;-68
2024/02/27 10:34:48;;;;;;;;;;;;;;;;;;5089311;28;19912;-69
2024/02/27 10:37:14;;;;;;;;;;;;;;;;;;5087202;28;20446;-68
2024/02/27 10:39:40;;;;;;;;;;;;;;;;;;5084868;28;19916;-69
2024/02/27 10:42:47;;;;;;;;;;;;;;;;;;5152907;27;19922;-69
2024/02/27 10:45:13;;;;;;;;;;;;;;;;;;5147793;27;19918;-68
2024/02/27 10:47:39;;;;;;;;;;;;;;;;;;5146585;27;20444;-68
2024/02/27 10:50:06;;;;;;;;;;;;;;;;;;5147034;27;19950;-67
2024/02/27 10:52:32;;;;;;;;;;;;;;;;;;5146932;27;19936;-71
2024/02/27 10:54:58;;;;;;;;;;;;;;;;;;5150302;27;19915;-71
2024/02/27 10:59:46;;;;;;;;;;;;;;;;;;5080472;27;19921;-69
2024/02/27 11:04:29;;;;;;;;;;;;;;;;;;5150723;27;20018;-66
2024/02/27 11:07:56;;;;;;;;;;;;;;;;;;5088771;27;19931;-68
2024/02/27 11:12:10;;;;;;;;;;;;;;;;;;5162973;27;20392;-67
2024/02/27 11:14:36;;;;;;;;;;;;;;;;;;5149039;27;20430;-67
2024/02/27 11:17:02;;;;;;;;;;;;;;;;;;5146383;27;20654;-66
2024/02/27 11:19:28;;;;;;;;;;;;;;;;;;5147140;27;19937;-67
2024/02/27 11:23:51;;;;;;;;;;;;;;;;;;5087321;28;19932;-66
2024/02/27 11:26:17;;;;;;;;;;;;;;;;;;5088627;28;19912;-68
2024/02/27 11:29:57;;;;;;;;;;;;;;;;;;5167631;27;19915;-67
2024/02/27 11:32:23;;;;;;;;;;;;;;;;;;5136213;27;20434;-66
2024/02/27 11:35:18;;;;;;;;;;;;;;;;;;5087730;28;21522;-69
2024/02/27 11:39:42;;;;;;;;;;;;;;;;;;5065646;28;19916;-66
2024/02/27 11:42:08;;;;;;;;;;;;;;;;;;5049895;28;19920;-67
2024/02/27 11:44:53;;;;;;;;;;;;;;;;;;5085617;27;19927;-69
2024/02/27 11:47:19;;;;;;;;;;;;;;;;;;5083816;28;20287;-68
2024/02/27 11:52:10;;;;;;;;;;;;;;;;;;5096799;27;19916;-68
2024/02/27 11:54:36;;;;;;;;;;;;;;;;;;5091674;28;19916;-67
2024/02/27 11:58:52;;;;;;;;;;;;;;;;;;5086235;27;19924;-69
2024/02/27 12:05:04;;;;;;;;;;;;;;;;;;5085100;27;20379;-69
2024/02/27 12:07:30;;;;;;;;;;;;;;;;;;5083922;28;19948;-68
2024/02/27 12:14:48;;;;;;;;;;;;;;;;;;5168513;27;19919;-70
2024/02/27 12:19:06;;;;;;;;;;;;;;;;;;5167416;27;19924;-68
2024/02/27 12:22:01;;;;;;;;;;;;;;;;;;5144397;27;19915;-71
2024/02/27 12:24:27;;;;;;;;;;;;;;;;;;5134654;27;19918;-67
2024/02/27 12:30:50;;;;;;;;;;;;;;;;;;5023307;27;3619519;-67
2024/02/27 12:33:15;;;;;;;;;;;;;;;;;;5134096;27;19916;-67
2024/02/27 12:37:19;;;;;;;;;;;;;;;;;;5068962;28;19921;-67
2024/02/27 12:39:45;;;;;;;;;;;;;;;;;;5070313;28;20433;-67
2024/02/27 12:44:58;;;;;;;;;;;;;;;;;;5089896;27;19916;-67
2024/02/27 12:48:17;;;;;;;;;;;;;;;;;;5090040;27;19920;-68
2024/02/27 12:50:44;;;;;;;;;;;;;;;;;;5089238;28;19913;-67
2024/02/27 12:53:10;;;;;;;;;;;;;;;;;;5089454;28;20002;-68
2024/02/27 12:59:15;;;;;;;;;;;;;;;;;;5089179;27;19923;-68
2024/02/27 13:01:42;;;;;;;;;;;;;;;;;;5089219;28;20224;-67
2024/02/27 13:04:07;;;;;;;;;;;;;;;;;;5087690;28;19913;-67
2024/02/27 13:08:09;;;;;;;;;;;;;;;;;;5088870;27;19912;-66
2024/02/27 13:11:00;;;;;;;;;;;;;;;;;;5088993;27;19917;-66
2024/02/27 13:13:29;;;;;;;;;;;;;;;;;;5089120;28;19912;-68
2024/02/27 13:15:55;;;;;;;;;;;;;;;;;;5088271;28;20296;-67
2024/02/27 13:21:08;;;;;;;;;;;;;;;;;;5089205;27;19923;-67
2024/02/27 13:23:34;;;;;;;;;;;;;;;;;;5088606;28;19916;-68
2024/02/27 13:26:00;;;;;;;;;;;;;;;;;;5088957;28;19930;-68
2024/02/27 13:28:45;;;;;;;;;;;;;;;;;;5090213;27;19922;-67
2024/02/27 13:31:12;;;;;;;;;;;;;;;;;;5087324;28;19917;-67
2024/02/27 13:35:06;;;;;;;;;;;;;;;;;;5120791;27;19920;-70
2024/02/27 13:37:32;;;;;;;;;;;;;;;;;;5120406;27;20217;-68
2024/02/27 13:40:18;;;;;;;;;;;;;;;;;;5151502;27;20021;-65
2024/02/27 13:42:45;;;;;;;;;;;;;;;;;;5116601;28;19954;-68
2024/02/27 13:45:11;;;;;;;;;;;;;;;;;;5131863;27;19917;-66
2024/02/27 13:47:37;;;;;;;;;;;;;;;;;;5131609;28;19912;-66
2024/02/27 13:50:03;;;;;;;;;;;;;;;;;;5130258;27;19956;-67
2024/02/27 13:53:14;;;;;;;;;;;;;;;;;;5088440;27;20299;-65
2024/02/27 13:55:40;;;;;;;;;;;;;;;;;;5089721;28;19916;-66
2024/02/27 13:58:06;;;;;;;;;;;;;;;;;;5087992;28;20325;-66
2024/02/27 14:00:32;;;;;;;;;;;;;;;;;;5089495;28;19914;-66
2024/02/27 14:02:58;;;;;;;;;;;;;;;;;;5089059;28;19912;-66
2024/02/27 14:06:55;;;;;;;;;;;;;;;;;;5089597;27;19923;-67
2024/02/27 14:09:21;;;;;;;;;;;;;;;;;;5089829;28;19942;-66
2024/02/27 14:15:01;;;;;;;;;;;;;;;;;;5111516;27;19923;-67
2024/02/27 14:17:27;;;;;;;;;;;;;;;;;;5127471;28;20003;-67
2024/02/27 14:19:53;;;;;;;;;;;;;;;;;;5122427;27;19916;-68
2024/02/27 14:23:26;;;;;;;;;;;;;;;;;;5068122;27;2430585;-67
2024/02/27 14:25:52;;;;;;;;;;;;;;;;;;5151970;27;19912;-68
2024/02/27 14:28:18;;;;;;;;;;;;;;;;;;5131505;27;19911;-68
2024/02/27 14:30:54;;;;;;;;;;;;;;;;;;5096333;27;2152463;-67
2024/02/27 14:33:20;;;;;;;;;;;;;;;;;;5164971;27;19911;-66
2024/02/27 14:35:46;;;;;;;;;;;;;;;;;;5138086;27;20397;-68
2024/02/27 14:38:12;;;;;;;;;;;;;;;;;;5152052;27;20375;-67
2024/02/27 14:40:39;;;;;;;;;;;;;;;;;;5145845;27;19911;-68
2024/02/27 14:43:05;;;;;;;;;;;;;;;;;;5171896;27;19907;-68
2024/02/27 14:45:31;;;;;;;;;;;;;;;;;;5173015;27;19907;-69
2024/02/27 14:47:57;;;;;;;;;;;;;;;;;;5172929;27;19906;-69
2024/02/27 14:50:52;;;;;;;;;;;;;;;;;;5141886;27;19938;-67
2024/02/27 14:55:17;;;;;;;;;;;;;;;;;;5071758;27;19917;-68
2024/02/27 14:57:43;;;;;;;;;;;;;;;;;;5070002;28;19923;-67
2024/02/27 15:00:11;;;;;;;;;;;;;;;;;;5068911;28;20003;-68
2024/02/27 15:05:12;;;;;;;;;;;;;;;;;;5089939;27;19917;-68
2024/02/27 15:07:38;;;;;;;;;;;;;;;;;;5088074;28;19919;-69
2024/02/27 15:10:29;;;;;;;;;;;;;;;;;;5090090;27;19920;-69
2024/02/27 15:12:56;;;;;;;;;;;;;;;;;;5086044;28;20369;-70
2024/02/27 15:15:23;;;;;;;;;;;;;;;;;;5067852;28;20285;-68
2024/02/27 15:19:56;;;;;;;;;;;;;;;;;;5090207;27;2137223;-68
2024/02/27 15:22:24;;;;;;;;;;;;;;;;;;5131719;27;19968;-66
2024/02/27 15:26:57;;;;;;;;;;;;;;;;;;5090163;27;19912;-68
2024/02/27 15:30:29;;;;;;;;;;;;;;;;;;5090177;27;20284;-70
2024/02/27 15:32:55;;;;;;;;;;;;;;;;;;5089026;28;20011;-71
2024/02/27 15:35:20;;;;;;;;;;;;;;;;;;5089391;28;19963;-71
2024/02/27 15:38:20;;;;;;;;;;;;;;;;;;5090261;27;19917;-70
2024/02/27 15:42:52;;;;;;;;;;;;;;;;;;5090767;27;19916;-70
2024/02/27 15:45:18;;;;;;;;;;;;;;;;;;5088854;28;20317;-70
2024/02/27 15:47:45;;;;;;;;;;;;;;;;;;5090755;28;19908;-71
2024/02/27 15:50:11;;;;;;;;;;;;;;;;;;5090593;28;19922;-70
2024/02/27 15:54:36;;;;;;;;;;;;;;;;;;5090989;27;19923;-70
2024/02/27 16:00:17;;;;;;;;;;;;;;;;;;5091186;27;19917;-70
2024/02/27 16:02:43;;;;;;;;;;;;;;;;;;5090878;28;20348;-70
2024/02/27 16:05:09;;;;;;;;;;;;;;;;;;5089322;28;19947;-70
2024/02/27 16:07:35;;;;;;;;;;;;;;;;;;5090136;28;19908;-71
2024/02/27 16:10:06;;;;;;;;;;;;;;;;;;5089736;28;19999;-71
2024/02/27 16:12:32;;;;;;;;;;;;;;;;;;5088993;28;19920;-70
2024/02/27 16:15:00;;;;;;;;;;;;;;;;;;5089064;28;20391;-71
2024/02/27 16:17:25;;;;;;;;;;;;;;;;;;5088819;28;20003;-71
2024/02/27 16:19:51;;;;;;;;;;;;;;;;;;5088487;28;20021;-71
2024/02/27 16:24:43;;;;;;;;;;;;;;;;;;5089830;27;19913;-71
2024/02/27 16:27:08;;;;;;;;;;;;;;;;;;5086821;28;20020;-71
2024/02/27 16:29:34;;;;;;;;;;;;;;;;;;5091105;28;19909;-71
2024/02/27 16:32:00;;;;;;;;;;;;;;;;;;5091130;28;20369;-70
2024/02/27 16:35:36;;;;;;;;;;;;;;;;;;5090112;27;19917;-71
2024/02/27 16:38:02;;;;;;;;;;;;;;;;;;5090627;28;20019;-69
2024/02/27 16:40:28;;;;;;;;;;;;;;;;;;5085653;28;20003;-70
2024/02/27 16:42:56;;;;;;;;;;;;;;;;;;5091082;28;19912;-70
2024/02/27 16:45:22;;;;;;;;;;;;;;;;;;5091302;28;20031;-70
2024/02/27 16:47:48;;;;;;;;;;;;;;;;;;5090792;28;19948;-71
2024/02/27 16:50:14;;;;;;;;;;;;;;;;;;5090921;28;19913;-70
2024/02/27 16:52:39;;;;;;;;;;;;;;;;;;5090871;28;19930;-70
2024/02/27 16:55:05;;;;;;;;;;;;;;;;;;5089235;28;19927;-71
2024/02/27 16:57:32;;;;;;;;;;;;;;;;;;5090962;28;19908;-70
2024/02/27 16:59:58;;;;;;;;;;;;;;;;;;5092646;28;20007;-71
2024/02/27 17:02:24;;;;;;;;;;;;;;;;;;5090557;28;19908;-72
2024/02/27 17:04:50;;;;;;;;;;;;;;;;;;5090577;28;19909;-71
2024/02/27 17:07:16;;;;;;;;;;;;;;;;;;5090712;28;19912;-71
2024/02/27 17:09:42;;;;;;;;;;;;;;;;;;5089279;28;19986;-72
2024/02/27 17:12:08;;;;;;;;;;;;;;;;;;5090781;28;19915;-70
2024/02/27 17:14:34;;;;;;;;;;;;;;;;;;5090492;28;19948;-70
2024/02/27 17:17:00;;;;;;;;;;;;;;;;;;5089884;28;19983;-70
2024/02/27 17:19:26;;;;;;;;;;;;;;;;;;5090713;28;19999;-69
2024/02/27 17:21:52;;;;;;;;;;;;;;;;;;5090302;28;19909;-70
2024/02/27 17:24:18;;;;;;;;;;;;;;;;;;5090564;28;20391;-70
2024/02/27 17:26:44;;;;;;;;;;;;;;;;;;5090401;28;20261;-72
2024/02/27 17:29:10;;;;;;;;;;;;;;;;;;5089808;28;19909;-71
2024/02/27 17:31:36;;;;;;;;;;;;;;;;;;5089220;28;19955;-71
2024/02/27 17:34:02;;;;;;;;;;;;;;;;;;5088524;28;20392;-70
2024/02/27 17:36:28;;;;;;;;;;;;;;;;;;5089859;28;19955;-71
2024/02/27 17:38:54;;;;;;;;;;;;;;;;;;5090003;28;19999;-70
2024/02/27 17:41:20;;;;;;;;;;;;;;;;;;5090111;28;19916;-70
2024/02/27 17:43:45;;;;;;;;;;;;;;;;;;5089898;28;20307;-70
2024/02/27 17:46:11;;;;;;;;;;;;;;;;;;5080914;28;19908;-70
2024/02/27 17:48:37;;;;;;;;;;;;;;;;;;5076369;28;19944;-70
2024/02/27 17:51:04;;;;;;;;;;;;;;;;;;5075914;28;19909;-70
2024/02/27 17:53:30;;;;;;;;;;;;;;;;;;5076237;28;19912;-70
2024/02/27 17:55:56;;;;;;;;;;;;;;;;;;5076246;28;19963;-70
2024/02/27 17:58:22;;;;;;;;;;;;;;;;;;5075899;28;19908;-70
2024/02/27 18:00:48;;;;;;;;;;;;;;;;;;5076175;28;19931;-70
2024/02/27 18:03:14;;;;;;;;;;;;;;;;;;5076571;28;20006;-71
2024/02/27 18:05:39;;;;;;;;;;;;;;;;;;5075809;28;20423;-71
2024/02/27 18:08:05;;;;;;;;;;;;;;;;;;5076092;28;20398;-70
2024/02/27 18:10:31;;;;;;;;;;;;;;;;;;5076031;28;19912;-69
2024/02/27 18:12:57;;;;;;;;;;;;;;;;;;5075502;28;19909;-69
2024/02/27 18:15:26;;;;;;;;;;;;;;;;;;5075291;28;19920;-69
2024/02/27 18:17:52;;;;;;;;;;;;;;;;;;5074502;28;19916;-69
2024/02/27 18:20:18;;;;;;;;;;;;;;;;;;5075265;28;19909;-70